Time,TemperatureF,DewpointF,PressureIn,WindDirection,WindDirectionDegrees,WindSpeedMPH,WindSpeedGustMPH,Humidity,HourlyPrecipIn,Conditions,Clouds,dailyrainin,SoftwareType,DateUTC
2016-02-13 00:04:00,42.6,25.3,30.12,NNE,22,1.7,-999.0,50,-99.99,,,0.00,Acu-Link.com,2016-02-13 08:04:00,
2016-02-13 00:19:00,41.4,25.1,30.12,ENE,67,0.0,-999.0,52,-99.99,,,0.00,Acu-Link.com,2016-02-13 08:19:00,
2016-02-13 00:34:00,39.9,25.1,30.11,South,180,0.0,-999.0,55,-99.99,,,0.00,Acu-Link.com,2016-02-13 08:34:00,
2016-02-13 00:49:00,38.3,24.8,30.11,ENE,67,2.7,-999.0,58,-99.99,,,0.00,Acu-Link.com,2016-02-13 08:49:00,
2016-02-13 01:05:00,38.5,25.4,30.11,NNE,22,0.0,-999.0,59,-99.99,,,0.00,Acu-Link.com,2016-02-13 09:05:00,
2016-02-13 01:20:00,37.9,25.7,30.11,WSW,247,0.0,-999.0,61,-99.99,,,0.00,Acu-Link.com,2016-02-13 09:20:00,
2016-02-13 02:06:00,35.1,26.0,30.12,NNE,22,0.0,-999.0,69,-99.99,,,0.00,Acu-Link.com,2016-02-13 10:06:00,
2016-02-13 02:21:00,34.0,26.6,30.12,NE,45,0.0,-999.0,74,-99.99,,,0.00,Acu-Link.com,2016-02-13 10:21:00,
2016-02-13 02:36:00,33.6,26.2,30.12,ESE,112,0.0,-999.0,74,-99.99,,,0.00,Acu-Link.com,2016-02-13 10:36:00,
2016-02-13 02:51:00,33.1,25.4,30.12,ENE,67,0.0,-999.0,73,-99.99,,,0.00,Acu-Link.com,2016-02-13 10:51:00,
2016-02-13 03:07:00,32.4,25.4,30.12,NNE,22,0.0,-999.0,75,-99.99,,,0.00,Acu-Link.com,2016-02-13 11:07:00,
2016-02-13 03:22:00,31.1,24.4,30.13,ENE,67,0.0,-999.0,76,-99.99,,,0.00,Acu-Link.com,2016-02-13 11:22:00,
2016-02-13 03:37:00,30.4,25.0,30.13,East,90,0.0,-999.0,80,-99.99,,,0.00,Acu-Link.com,2016-02-13 11:37:00,
2016-02-13 03:52:00,30.6,25.2,30.12,NE,45,0.0,-999.0,80,-99.99,,,0.00,Acu-Link.com,2016-02-13 11:52:00,
2016-02-13 04:08:00,32.4,25.1,30.13,NNW,337,2.7,-999.0,74,-99.99,,,0.00,Acu-Link.com,2016-02-13 12:08:00,
2016-02-13 04:23:00,36.0,25.0,30.12,ENE,67,2.2,-999.0,64,-99.99,,,0.00,Acu-Link.com,2016-02-13 12:23:00,
2016-02-13 04:38:00,34.5,24.7,30.13,SE,135,0.0,-999.0,67,-99.99,,,0.00,Acu-Link.com,2016-02-13 12:38:00,
2016-02-13 04:54:00,32.4,24.4,30.14,NNE,22,0.0,-999.0,72,-99.99,,,0.00,Acu-Link.com,2016-02-13 12:54:00,
2016-02-13 05:09:00,31.6,24.3,30.14,NE,45,0.0,-999.0,74,-99.99,,,0.00,Acu-Link.com,2016-02-13 13:09:00,
2016-02-13 05:24:00,30.0,24.3,30.15,North,0,0.0,-999.0,79,-99.99,,,0.00,Acu-Link.com,2016-02-13 13:24:00,